Time;durP1;ratioP1;P1;durP2;ratioP2;P2;SDS_P1;SDS_P2;PMS_P1;PMS_P2;Temp;Humidity;BMP_temperature;BMP_pressure;BME280_temperature;BME280_humidity;BME280_pressure;Samples;Min_cycle;Max_cycle;Signal;HPM_P1;HPM_P2
2023/07/24 00:00:07;;;;;;;5.17;4.73;;;19.20;64.40;;;;;;6276373;28;20234;-79
2023/07/24 00:03:10;;;;;;;4.93;4.57;;;19.30;64.30;;;;;;6267667;28;20833;-82
2023/07/24 00:06:14;;;;;;;6.17;4.60;;;19.30;64.00;;;;;;6285508;28;20762;-81
2023/07/24 00:09:17;;;;;;;5.23;4.93;;;19.30;64.50;;;;;;6285291;28;20329;-82
2023/07/24 00:12:20;;;;;;;5.47;5.07;;;19.30;64.50;;;;;;6248138;28;20238;-81
2023/07/24 00:15:24;;;;;;;5.83;5.43;;;19.30;64.70;;;;;;6275257;28;20229;-81
2023/07/24 00:18:30;;;;;;;5.53;4.93;;;19.20;64.30;;;;;;6259215;28;20752;-80
2023/07/24 00:21:34;;;;;;;4.83;4.60;;;19.20;64.00;;;;;;6251466;28;20644;-83
2023/07/24 00:24:37;;;;;;;4.83;4.47;;;19.30;64.00;;;;;;6272024;28;20311;-82
2023/07/24 00:27:40;;;;;;;5.03;4.53;;;19.30;64.00;;;;;;6256905;28;20733;-80
2023/07/24 00:30:45;;;;;;;4.73;4.40;;;19.20;63.90;;;;;;6277664;28;20241;-80
2023/07/24 00:33:48;;;;;;;4.30;4.10;;;19.30;63.90;;;;;;6278061;28;20801;-79
2023/07/24 00:36:51;;;;;;;4.50;4.10;;;19.30;63.00;;;;;;6269071;28;20284;-82
2023/07/24 00:39:54;;;;;;;4.30;4.10;;;19.30;63.00;;;;;;6269062;28;20275;-81
2023/07/24 00:42:57;;;;;;;4.53;4.23;;;19.30;62.90;;;;;;6276858;28;20241;-79
2023/07/24 00:46:04;;;;;;;3.93;3.73;;;19.40;62.50;;;;;;6287365;28;20255;-81
2023/07/24 00:49:11;;;;;;;4.40;4.20;;;19.40;62.40;;;;;;6262913;28;20261;-81
2023/07/24 00:52:15;;;;;;;4.30;4.10;;;19.40;62.40;;;;;;6267738;28;20234;-81
2023/07/24 00:55:18;;;;;;;4.47;4.00;;;19.30;62.50;;;;;;6276785;28;20241;-83
2023/07/24 00:58:23;;;;;;;3.73;3.63;;;19.30;62.80;;;;;;6271460;28;20248;-82
2023/07/24 01:01:27;;;;;;;4.67;4.37;;;19.30;62.60;;;;;;6241769;28;20238;-81
2023/07/24 01:04:30;;;;;;;4.57;4.23;;;19.30;62.70;;;;;;6278793;28;20734;-81
2023/07/24 01:07:34;;;;;;;4.17;3.97;;;19.20;62.80;;;;;;6278411;28;20313;-81
2023/07/24 01:10:37;;;;;;;4.37;4.10;;;19.20;62.70;;;;;;6257687;28;20279;-83
2023/07/24 01:13:46;;;;;;;4.67;4.40;;;19.20;62.60;;;;;;6298290;28;20238;-83
2023/07/24 01:16:54;;;;;;;3.80;3.60;;;19.20;62.60;;;;;;6303508;28;20221;-80
2023/07/24 01:19:59;;;;;;;3.90;3.77;;;19.10;62.80;;;;;;6295182;28;20214;-81
2023/07/24 01:23:18;;;;;;;4.23;4.07;;;19.10;62.90;;;;;;6292327;28;20403;-78
2023/07/24 01:26:24;;;;;;;4.07;3.87;;;19.00;63.10;;;;;;6301950;28;20222;-80
2023/07/24 01:29:27;;;;;;;4.07;3.87;;;19.00;63.00;;;;;;6300733;28;20218;-79
2023/07/24 01:32:33;;;;;;;3.70;3.50;;;19.00;63.00;;;;;;6308188;28;20232;-77
2023/07/24 01:35:37;;;;;;;3.90;3.80;;;19.00;63.20;;;;;;6292161;28;20733;-77
2023/07/24 01:38:41;;;;;;;3.83;3.60;;;19.00;63.50;;;;;;6307607;28;20229;-78
2023/07/24 01:41:46;;;;;;;3.90;3.80;;;19.10;63.40;;;;;;6314455;28;20228;-79
2023/07/24 01:44:52;;;;;;;3.73;3.63;;;19.00;63.40;;;;;;6289007;28;20214;-79
2023/07/24 01:47:55;;;;;;;3.57;3.47;;;19.10;63.50;;;;;;6297566;28;20253;-78
2023/07/24 01:50:59;;;;;;;3.80;3.70;;;19.00;63.50;;;;;;6296570;28;20221;-79
2023/07/24 01:54:02;;;;;;;4.17;3.97;;;19.10;63.90;;;;;;6294946;28;20217;-78
2023/07/24 01:57:06;;;;;;;4.00;3.70;;;19.10;64.00;;;;;;6285701;28;20242;-76
2023/07/24 02:00:11;;;;;;;3.90;3.70;;;19.10;64.00;;;;;;6306543;28;20282;-78
2023/07/24 02:03:14;;;;;;;3.70;3.60;;;19.10;64.00;;;;;;6296039;28;20217;-78
2023/07/24 02:06:18;;;;;;;3.97;3.83;;;19.10;64.00;;;;;;6302408;28;20277;-79
2023/07/24 02:09:21;;;;;;;4.73;4.03;;;19.00;64.00;;;;;;6270381;28;20231;-75
2023/07/24 02:12:26;;;;;;;4.13;3.93;;;19.00;64.00;;;;;;6249424;28;20243;-75
2023/07/24 02:15:29;;;;;;;4.17;3.97;;;19.00;64.00;;;;;;6261870;28;20299;-76
2023/07/24 02:18:32;;;;;;;4.10;3.80;;;19.00;64.00;;;;;;6259309;28;20226;-74
2023/07/24 02:21:35;;;;;;;4.37;4.20;;;19.10;63.70;;;;;;6260082;28;20226;-77
2023/07/24 02:24:39;;;;;;;4.63;4.40;;;19.10;63.60;;;;;;6275743;28;20312;-81
2023/07/24 02:27:44;;;;;;;4.50;4.17;;;19.10;63.90;;;;;;6260958;28;20748;-78
2023/07/24 02:30:48;;;;;;;4.30;4.10;;;19.10;64.20;;;;;;6234330;28;20254;-82
2023/07/24 02:33:51;;;;;;;4.30;4.13;;;19.00;63.90;;;;;;6255068;28;20332;-81
2023/07/24 02:36:54;;;;;;;4.43;4.13;;;19.00;63.80;;;;;;6243727;28;20238;-78
2023/07/24 02:39:57;;;;;;;4.23;3.90;;;19.00;63.80;;;;;;6245825;28;20234;-82
2023/07/24 02:43:02;;;;;;;5.53;3.73;;;19.10;63.90;;;;;;6253271;28;20237;-82
2023/07/24 02:46:07;;;;;;;4.33;4.20;;;19.10;64.00;;;;;;6242567;28;20321;-82
2023/07/24 02:49:11;;;;;;;4.20;3.73;;;19.10;64.00;;;;;;6246663;28;20328;-77
2023/07/24 02:52:14;;;;;;;3.70;3.60;;;19.10;64.30;;;;;;6249657;28;20251;-82
2023/07/24 02:55:17;;;;;;;3.83;3.63;;;19.10;64.40;;;;;;6241435;28;20843;-83
2023/07/24 02:58:22;;;;;;;3.67;3.57;;;19.20;64.40;;;;;;6226632;28;20232;-80
2023/07/24 03:01:25;;;;;;;3.60;3.50;;;19.30;64.50;;;;;;6236560;28;20230;-80
2023/07/24 03:04:29;;;;;;;3.60;3.40;;;19.30;65.10;;;;;;6236128;28;20257;-78
2023/07/24 03:07:32;;;;;;;3.50;3.40;;;19.30;64.90;;;;;;6252111;28;20260;-80
2023/07/24 03:10:36;;;;;;;3.37;3.17;;;19.20;65.40;;;;;;6235757;28;20767;-81
2023/07/24 03:13:42;;;;;;;3.50;3.40;;;19.30;65.40;;;;;;6241680;28;20266;-80
2023/07/24 03:16:45;;;;;;;3.57;3.37;;;19.30;65.40;;;;;;6247733;28;20234;-79
2023/07/24 03:19:50;;;;;;;3.87;3.57;;;19.30;65.70;;;;;;6237701;28;20233;-79
2023/07/24 03:22:53;;;;;;;2.90;2.80;;;19.30;65.80;;;;;;6226509;28;20243;-82
2023/07/24 03:25:56;;;;;;;3.30;3.20;;;19.30;65.80;;;;;;6248614;28;20246;-80
2023/07/24 03:29:01;;;;;;;3.53;3.30;;;19.30;65.70;;;;;;6237723;28;20238;-80
2023/07/24 03:32:05;;;;;;;3.33;3.17;;;19.40;66.10;;;;;;6235198;28;20750;-80
2023/07/24 03:35:09;;;;;;;4.17;3.27;;;19.40;66.20;;;;;;6240278;28;20279;-77
2023/07/24 03:38:12;;;;;;;2.77;2.70;;;19.40;66.20;;;;;;6238786;28;20239;-79
2023/07/24 03:41:15;;;;;;;2.90;2.80;;;19.40;66.30;;;;;;6243460;28;20372;-80
2023/07/24 03:44:20;;;;;;;3.33;3.23;;;19.40;66.40;;;;;;6244340;28;20319;-78
2023/07/24 03:47:23;;;;;;;2.87;2.77;;;19.50;66.40;;;;;;6235269;28;20246;-79
2023/07/24 03:50:26;;;;;;;4.53;3.17;;;19.50;66.60;;;;;;6236792;28;20711;-78
2023/07/24 03:53:29;;;;;;;3.03;2.93;;;19.40;67.70;;;;;;6232394;28;20346;-79
2023/07/24 03:56:35;;;;;;;3.00;2.90;;;19.40;68.10;;;;;;6227638;28;20313;-79
2023/07/24 03:59:39;;;;;;;3.07;2.90;;;19.40;68.10;;;;;;6244847;28;20237;-79
2023/07/24 04:02:42;;;;;;;2.87;2.77;;;19.40;67.90;;;;;;6238075;28;20838;-78
2023/07/24 04:05:45;;;;;;;3.00;2.90;;;19.40;67.90;;;;;;6230274;28;20486;-79
2023/07/24 04:08:48;;;;;;;3.07;2.87;;;19.40;68.40;;;;;;6234257;28;20314;-76
2023/07/24 04:11:51;;;;;;;3.07;2.97;;;19.40;69.20;;;;;;6233445;28;20255;-76
2023/07/24 04:14:56;;;;;;;3.07;2.97;;;19.30;69.90;;;;;;6246092;28;20250;-79
2023/07/24 04:17:59;;;;;;;2.83;2.83;;;19.20;70.40;;;;;;6251640;28;20813;-79
2023/07/24 04:21:03;;;;;;;2.83;2.63;;;19.00;70.80;;;;;;6239951;28;20281;-78
2023/07/24 04:24:07;;;;;;;3.13;3.00;;;19.00;70.80;;;;;;6250224;28;20860;-79
2023/07/24 04:27:10;;;;;;;3.10;2.90;;;19.10;71.10;;;;;;6242910;28;20229;-82
2023/07/24 04:30:14;;;;;;;3.27;3.17;;;19.10;70.90;;;;;;6237577;28;20246;-80
2023/07/24 04:33:18;;;;;;;3.00;2.90;;;19.20;70.50;;;;;;6237610;28;20444;-77
2023/07/24 04:36:21;;;;;;;2.80;2.70;;;19.30;70.30;;;;;;6241212;28;20252;-77
2023/07/24 04:39:24;;;;;;;3.40;2.80;;;19.30;70.10;;;;;;6246066;28;20664;-81
2023/07/24 04:42:27;;;;;;;2.70;2.60;;;19.30;69.90;;;;;;6240471;28;20243;-76
2023/07/24 04:45:31;;;;;;;5.07;2.87;;;19.30;70.00;;;;;;6247031;28;20239;-78
2023/07/24 04:48:34;;;;;;;2.93;2.73;;;19.40;69.80;;;;;;6241907;28;20781;-78
2023/07/24 04:51:37;;;;;;;2.70;2.60;;;19.40;69.50;;;;;;6226582;28;20369;-78
2023/07/24 04:54:42;;;;;;;2.77;2.57;;;19.50;69.50;;;;;;6237977;28;20240;-77
2023/07/24 04:57:45;;;;;;;2.77;2.63;;;19.60;69.10;;;;;;6228195;28;20234;-77
2023/07/24 05:00:49;;;;;;;2.83;2.73;;;19.70;68.90;;;;;;6242199;28;20250;-76
2023/07/24 05:03:52;;;;;;;2.87;2.77;;;19.70;68.90;;;;;;6242906;28;20243;-79
2023/07/24 05:06:56;;;;;;;3.00;2.80;;;19.90;68.70;;;;;;6242221;28;20239;-81
2023/07/24 05:09:59;;;;;;;2.60;2.50;;;20.00;68.40;;;;;;6237690;28;20722;-77
2023/07/24 05:13:03;;;;;;;2.73;2.53;;;20.00;68.30;;;;;;6257784;28;20229;-77
2023/07/24 05:16:07;;;;;;;3.23;2.80;;;20.00;68.30;;;;;;6236870;28;20245;-76
2023/07/24 05:19:10;;;;;;;2.80;2.70;;;20.10;68.30;;;;;;6246358;28;20230;-78
2023/07/24 05:22:13;;;;;;;2.50;2.50;;;20.10;68.10;;;;;;6247317;28;20231;-76
2023/07/24 05:25:17;;;;;;;2.77;2.70;;;20.30;67.90;;;;;;6246590;28;20830;-78
2023/07/24 05:28:20;;;;;;;3.03;2.93;;;20.60;67.70;;;;;;6239874;28;20310;-79
2023/07/24 05:31:25;;;;;;;2.50;2.40;;;21.10;66.10;;;;;;6242630;28;20234;-77
2023/07/24 05:34:28;;;;;;;2.60;2.60;;;21.10;65.90;;;;;;6235040;28;20311;-78
2023/07/24 05:37:31;;;;;;;2.47;2.37;;;21.10;66.00;;;;;;6232736;28;20226;-80
2023/07/24 05:40:34;;;;;;;3.07;2.87;;;21.00;66.10;;;;;;6253198;28;20254;-79
2023/07/24 05:43:37;;;;;;;2.53;2.53;;;21.00;66.10;;;;;;6240775;28;21011;-79
2023/07/24 05:46:42;;;;;;;2.70;2.60;;;20.90;66.10;;;;;;6241770;28;20246;-78
2023/07/24 05:49:45;;;;;;;2.30;2.30;;;20.90;66.50;;;;;;6243872;28;20317;-77
2023/07/24 05:52:48;;;;;;;2.40;2.23;;;21.10;66.20;;;;;;6245506;28;20245;-79
2023/07/24 05:55:58;;;;;;;2.03;2.03;;;21.30;65.10;;;;;;6241042;28;20243;-77
2023/07/24 05:59:01;;;;;;;2.40;2.20;;;21.50;65.10;;;;;;6253472;28;20246;-80
2023/07/24 06:02:07;;;;;;;2.30;2.30;;;21.70;64.70;;;;;;6263228;28;20994;-75
2023/07/24 06:05:10;;;;;;;2.50;1.97;;;21.90;64.30;;;;;;6261755;28;20285;-80
2023/07/24 06:08:13;;;;;;;2.53;2.40;;;22.10;63.30;;;;;;6276692;28;20248;-76
2023/07/24 06:11:16;;;;;;;2.40;2.40;;;22.20;63.40;;;;;;6252544;28;20275;-78
2023/07/24 06:14:19;;;;;;;2.57;2.40;;;22.30;62.60;;;;;;6261231;28;20230;-79
2023/07/24 06:17:24;;;;;;;2.40;2.40;;;22.50;62.20;;;;;;6254508;28;20248;-78
2023/07/24 06:20:27;;;;;;;3.13;2.93;;;23.00;61.40;;;;;;6261747;28;20243;-75
2023/07/24 06:23:30;;;;;;;2.70;2.63;;;23.30;60.80;;;;;;6245992;28;20230;-77
2023/07/24 06:26:33;;;;;;;3.23;3.10;;;23.40;59.70;;;;;;6261146;28;20275;-77
2023/07/24 06:29:36;;;;;;;2.67;2.67;;;23.40;59.50;;;;;;6261300;28;20225;-78
2023/07/24 06:32:43;;;;;;;2.97;2.90;;;23.50;59.30;;;;;;6250477;28;20633;-78
2023/07/24 06:35:46;;;;;;;3.17;3.00;;;23.50;59.60;;;;;;6246852;28;20238;-79
2023/07/24 06:38:49;;;;;;;3.00;2.93;;;23.50;59.20;;;;;;6258458;28;20250;-79
2023/07/24 06:41:53;;;;;;;3.03;3.03;;;23.30;59.80;;;;;;6266048;28;20391;-77
2023/07/24 06:44:56;;;;;;;3.30;3.20;;;23.60;59.10;;;;;;6248928;28;20258;-76
2023/07/24 06:48:00;;;;;;;3.40;3.30;;;23.60;58.60;;;;;;6276861;28;20259;-78
2023/07/24 06:51:03;;;;;;;3.07;2.90;;;23.30;59.20;;;;;;6219799;28;20232;-79
2023/07/24 06:54:06;;;;;;;3.30;3.10;;;23.50;59.00;;;;;;6238203;28;20604;-78
2023/07/24 06:57:10;;;;;;;2.77;2.73;;;23.70;58.90;;;;;;6242786;28;20312;-77
2023/07/24 07:00:14;;;;;;;3.07;2.97;;;23.90;58.80;;;;;;6246527;28;20239;-77
2023/07/24 07:03:18;;;;;;;3.33;3.10;;;24.20;58.10;;;;;;6237804;28;20287;-78
2023/07/24 07:06:22;;;;;;;2.53;2.43;;;24.00;57.70;;;;;;6237642;28;20265;-77
2023/07/24 07:09:28;;;;;;;2.53;2.43;;;23.60;58.20;;;;;;6232873;28;20726;-77
2023/07/24 07:12:31;;;;;;;2.93;2.83;;;23.60;58.80;;;;;;6235709;28;20364;-78
2023/07/24 07:15:36;;;;;;;3.37;3.17;;;24.10;57.90;;;;;;6238147;28;20239;-77
2023/07/24 07:18:41;;;;;;;3.20;3.00;;;24.00;57.90;;;;;;6247743;28;20257;-78
2023/07/24 07:21:44;;;;;;;3.07;2.97;;;24.00;58.20;;;;;;6257056;28;20318;-78
2023/07/24 07:24:47;;;;;;;3.00;3.00;;;24.30;57.60;;;;;;6271098;28;20317;-78
2023/07/24 07:27:50;;;;;;;3.20;3.10;;;24.40;57.30;;;;;;6262071;28;20279;-78
2023/07/24 07:30:55;;;;;;;3.17;2.97;;;24.20;57.60;;;;;;6261591;28;20292;-78
2023/07/24 07:33:59;;;;;;;3.60;3.50;;;24.20;57.50;;;;;;6249124;28;20245;-78
2023/07/24 07:37:02;;;;;;;3.47;3.30;;;24.30;57.60;;;;;;6261425;28;20802;-80
2023/07/24 07:40:07;;;;;;;3.03;2.83;;;24.40;56.50;;;;;;6265654;28;20272;-76
2023/07/24 07:43:14;;;;;;;2.97;2.93;;;24.40;55.90;;;;;;6281322;28;20234;-78
2023/07/24 07:46:17;;;;;;;2.70;2.70;;;24.20;56.50;;;;;;6264997;28;20393;-77
2023/07/24 07:49:22;;;;;;;2.93;2.70;;;24.10;57.00;;;;;;6272683;28;20373;-78
2023/07/24 07:52:25;;;;;;;3.20;3.03;;;24.10;56.60;;;;;;6253778;28;20237;-75
2023/07/24 07:55:28;;;;;;;2.93;2.83;;;24.10;56.70;;;;;;6255170;28;20366;-78
2023/07/24 07:58:31;;;;;;;2.73;2.63;;;24.20;56.50;;;;;;6270068;28;20222;-78
2023/07/24 08:01:36;;;;;;;2.70;2.70;;;24.20;56.50;;;;;;6260951;28;20261;-76
2023/07/24 08:04:41;;;;;;;2.60;2.60;;;24.00;56.00;;;;;;6258696;28;20922;-77
2023/07/24 08:07:44;;;;;;;3.60;3.50;;;23.90;56.80;;;;;;6260952;28;20226;-77
2023/07/24 08:10:47;;;;;;;3.57;3.47;;;24.00;56.80;;;;;;6257065;28;20347;-78
2023/07/24 08:13:51;;;;;;;3.53;3.43;;;24.00;56.90;;;;;;6260019;28;20262;-76
2023/07/24 08:16:54;;;;;;;3.17;3.07;;;24.00;56.50;;;;;;6265013;28;20666;-77
2023/07/24 08:19:59;;;;;;;3.13;3.10;;;24.00;56.40;;;;;;6267853;28;20248;-78
2023/07/24 08:23:02;;;;;;;3.17;2.97;;;24.00;56.60;;;;;;6259473;28;20737;-77
2023/07/24 08:26:05;;;;;;;2.83;2.73;;;24.20;56.20;;;;;;6262801;28;20718;-79
2023/07/24 08:29:08;;;;;;;2.93;2.83;;;24.40;55.30;;;;;;6286957;28;20240;-78
2023/07/24 08:32:12;;;;;;;2.63;2.63;;;24.50;55.00;;;;;;6260272;28;20269;-77
2023/07/24 08:35:18;;;;;;;3.17;3.00;;;24.60;55.80;;;;;;6269433;28;20286;-77
2023/07/24 08:38:21;;;;;;;2.20;2.20;;;25.00;55.10;;;;;;6269902;28;20386;-79
2023/07/24 08:41:24;;;;;;;3.57;3.37;;;25.20;54.40;;;;;;6263403;28;20245;-76
2023/07/24 08:44:30;;;;;;;2.93;2.83;;;25.30;54.00;;;;;;6257158;28;20230;-77
2023/07/24 08:47:35;;;;;;;2.50;2.50;;;25.30;54.40;;;;;;6269998;28;20756;-77
2023/07/24 08:50:40;;;;;;;2.77;2.77;;;25.20;54.10;;;;;;6274136;28;20267;-77
2023/07/24 08:53:44;;;;;;;3.13;2.93;;;25.00;54.70;;;;;;6268829;28;20693;-77
2023/07/24 08:56:50;;;;;;;2.70;2.60;;;25.00;55.50;;;;;;6262361;28;20242;-77
2023/07/24 08:59:53;;;;;;;2.63;2.63;;;24.80;55.80;;;;;;6268690;28;20238;-76
2023/07/24 09:02:56;;;;;;;3.17;3.07;;;25.10;55.00;;;;;;6255947;28;20247;-77
2023/07/24 09:06:03;;;;;;;2.70;2.60;;;25.40;55.00;;;;;;6286189;28;20748;-76
2023/07/24 09:09:14;;;;;;;2.83;2.80;;;25.50;54.40;;;;;;6266017;28;20234;-80
2023/07/24 09:12:17;;;;;;;2.60;2.60;;;25.40;54.40;;;;;;6268985;28;20315;-78
2023/07/24 09:15:20;;;;;;;2.93;2.93;;;25.20;54.80;;;;;;6268335;28;20264;-77
2023/07/24 09:18:23;;;;;;;3.17;3.07;;;25.00;54.70;;;;;;6272424;28;20756;-77
2023/07/24 09:21:32;;;;;;;2.67;2.67;;;24.80;55.20;;;;;;6262339;28;20239;-77
2023/07/24 09:24:36;;;;;;;2.97;2.87;;;24.80;55.10;;;;;;6267145;28;20290;-76
2023/07/24 09:27:39;;;;;;;2.90;2.80;;;24.80;55.60;;;;;;6272486;28;20233;-76
2023/07/24 09:30:51;;;;;;;3.80;3.00;;;25.00;54.50;;;;;;6260766;28;20249;-78
2023/07/24 09:33:55;;;;;;;2.53;2.53;;;25.00;54.50;;;;;;6261604;28;20231;-77
2023/07/24 09:36:59;;;;;;;3.30;3.00;;;25.00;54.90;;;;;;6253910;28;20758;-77
2023/07/24 09:40:05;;;;;;;2.83;2.83;;;25.20;55.00;;;;;;6264668;28;20266;-78
2023/07/24 09:43:22;;;;;;;3.37;3.17;;;25.40;53.90;;;;;;6260981;28;20301;-79
2023/07/24 09:46:44;;;;;;;2.87;2.73;;;25.50;54.30;;;;;;6261556;28;20291;-77
2023/07/24 09:50:05;;;;;;;3.27;3.13;;;25.50;53.70;;;;;;6258478;28;20628;-79
2023/07/24 09:53:15;;;;;;;3.20;3.10;;;25.50;55.20;;;;;;6242174;28;20254;-77
2023/07/24 09:56:19;;;;;;;4.60;2.70;;;25.70;53.60;;;;;;6260962;28;20272;-79
2023/07/24 09:59:34;;;;;;;3.53;2.70;;;25.80;53.90;;;;;;6259814;28;20736;-75
2023/07/24 10:02:37;;;;;;;3.23;3.13;;;25.80;53.80;;;;;;6269541;28;20872;-76
2023/07/24 10:05:41;;;;;;;3.50;3.40;;;26.20;53.20;;;;;;6260406;28;20782;-78
2023/07/24 10:08:45;;;;;;;3.63;3.40;;;26.30;52.40;;;;;;6266686;28;20374;-77
2023/07/24 10:11:49;;;;;;;3.37;3.17;;;26.40;53.00;;;;;;6266929;28;20295;-77
2023/07/24 10:14:52;;;;;;;4.93;3.53;;;26.50;52.50;;;;;;6259686;28;20242;-77
2023/07/24 10:18:03;;;;;;;3.60;3.50;;;26.40;52.00;;;;;;6270402;28;20267;-77
2023/07/24 10:21:09;;;;;;;3.43;3.27;;;26.20;52.40;;;;;;6257197;28;20312;-77
2023/07/24 10:24:14;;;;;;;3.80;3.70;;;26.40;52.10;;;;;;6272989;28;20233;-77
2023/07/24 10:27:30;;;;;;;5.03;3.43;;;26.50;51.20;;;;;;6268041;28;20237;-78
2023/07/24 10:30:33;;;;;;;4.17;3.60;;;26.80;51.70;;;;;;6267210;28;20240;-80
2023/07/24 10:33:45;;;;;;;4.17;3.90;;;26.70;51.00;;;;;;6249860;28;20249;-77
2023/07/24 10:36:48;;;;;;;4.17;3.97;;;26.60;51.70;;;;;;6259321;28;20253;-78
2023/07/24 10:39:53;;;;;;;4.30;4.10;;;26.70;51.60;;;;;;6254956;28;20247;-77
2023/07/24 10:43:05;;;;;;;8.30;4.80;;;26.80;50.20;;;;;;6257542;28;20402;-78
2023/07/24 10:46:09;;;;;;;5.90;4.87;;;26.80;50.50;;;;;;6263406;28;20277;-78
2023/07/24 10:49:13;;;;;;;4.27;4.07;;;26.90;50.50;;;;;;6266238;28;20230;-77
2023/07/24 10:52:16;;;;;;;5.10;4.70;;;27.00;49.90;;;;;;6269124;28;20245;-77
2023/07/24 10:55:24;;;;;;;4.70;4.43;;;27.10;49.30;;;;;;6252554;28;20288;-78
2023/07/24 10:58:28;;;;;;;5.47;5.17;;;27.20;49.50;;;;;;6251404;28;20237;-76
2023/07/24 11:01:33;;;;;;;5.63;5.37;;;27.40;49.40;;;;;;6236604;28;20757;-79
2023/07/24 11:04:37;;;;;;;6.33;5.07;;;27.60;48.80;;;;;;6230630;28;20236;-77
2023/07/24 11:07:40;;;;;;;5.33;4.83;;;27.80;48.30;;;;;;6245888;28;20229;-77
2023/07/24 11:10:48;;;;;;;9.03;7.63;;;28.00;47.90;;;;;;6234429;28;20224;-77
2023/07/24 11:13:51;;;;;;;5.10;4.80;;;28.30;47.40;;;;;;6239741;28;20796;-77
2023/07/24 11:16:54;;;;;;;5.73;5.43;;;28.00;47.40;;;;;;6245514;28;20330;-77
2023/07/24 11:20:07;;;;;;;6.77;5.60;;;27.80;47.50;;;;;;6238947;28;20472;-79
2023/07/24 11:23:11;;;;;;;5.20;4.83;;;28.00;47.50;;;;;;6227681;28;20266;-77
2023/07/24 11:26:16;;;;;;;5.80;5.40;;;27.90;47.60;;;;;;6234080;28;20235;-77
2023/07/24 11:29:19;;;;;;;7.70;5.43;;;28.00;48.00;;;;;;6239386;28;20234;-76
2023/07/24 11:32:23;;;;;;;5.63;5.20;;;27.80;47.30;;;;;;6238777;28;20255;-78
2023/07/24 11:35:26;;;;;;;4.90;4.60;;;27.70;47.50;;;;;;6239264;28;21008;-79
2023/07/24 11:38:30;;;;;;;5.70;5.30;;;27.60;47.50;;;;;;6242418;28;20237;-76
2023/07/24 11:41:34;;;;;;;5.67;5.27;;;27.50;48.30;;;;;;6229604;28;20227;-80
2023/07/24 11:44:37;;;;;;;5.63;5.20;;;27.50;48.10;;;;;;6239341;28;20854;-78
2023/07/24 11:47:48;;;;;;;4.90;4.70;;;27.60;48.30;;;;;;6238002;28;20292;-78
2023/07/24 11:50:52;;;;;;;5.50;5.10;;;27.80;48.10;;;;;;6243391;28;20249;-77
2023/07/24 11:54:07;;;;;;;5.60;5.20;;;27.90;47.80;;;;;;6242071;28;20300;-77
2023/07/24 11:57:17;;;;;;;5.87;5.43;;;28.10;47.60;;;;;;6235489;28;20226;-77
2023/07/24 12:00:22;;;;;;;5.60;5.20;;;28.00;47.50;;;;;;6248929;28;20230;-77
2023/07/24 12:03:27;;;;;;;5.50;5.10;;;27.90;47.20;;;;;;6245921;28;20262;-77
2023/07/24 12:06:32;;;;;;;6.17;5.67;;;27.70;47.40;;;;;;6239792;28;20282;-78
2023/07/24 12:09:35;;;;;;;6.33;5.60;;;27.50;47.80;;;;;;6242472;28;20238;-79
2023/07/24 12:12:45;;;;;;;5.53;5.10;;;27.40;47.70;;;;;;6247743;28;20243;-78
2023/07/24 12:15:49;;;;;;;8.13;6.60;;;27.10;48.30;;;;;;6245087;28;20253;-78
2023/07/24 12:18:52;;;;;;;6.53;5.27;;;27.00;47.80;;;;;;6251576;28;20769;-79
2023/07/24 12:21:56;;;;;;;6.20;5.67;;;26.80;47.70;;;;;;6238717;28;20239;-75
2023/07/24 12:24:59;;;;;;;5.90;5.40;;;26.60;49.00;;;;;;6237263;28;20246;-77
2023/07/24 12:28:04;;;;;;;8.30;5.27;;;26.20;53.30;;;;;;6240517;28;20242;-80
2023/07/24 12:31:07;;;;;;;5.40;4.87;;;25.60;55.80;;;;;;6246607;28;20235;-79
2023/07/24 12:34:10;;;;;;;5.93;4.87;;;25.00;56.20;;;;;;6244512;28;20329;-77
2023/07/24 12:37:13;;;;;;;5.43;5.07;;;24.70;57.20;;;;;;6228918;28;20237;-78
2023/07/24 12:40:16;;;;;;;5.70;5.03;;;24.40;58.10;;;;;;6224493;28;20236;-76
2023/07/24 12:43:21;;;;;;;6.10;5.60;;;24.20;58.70;;;;;;6231985;28;20239;-79
2023/07/24 12:46:24;;;;;;;5.50;5.03;;;24.00;59.50;;;;;;6231843;28;20321;-76
2023/07/24 12:49:27;;;;;;;8.33;5.07;;;23.90;60.50;;;;;;6235317;28;20231;-78
2023/07/24 12:52:30;;;;;;;5.37;5.07;;;23.80;60.50;;;;;;6236042;28;20309;-78
2023/07/24 12:55:33;;;;;;;5.50;4.83;;;23.90;61.10;;;;;;6235860;28;20298;-79
2023/07/24 12:58:38;;;;;;;5.20;4.70;;;23.90;61.20;;;;;;6230577;28;20647;-78
2023/07/24 13:01:41;;;;;;;5.13;4.70;;;23.90;60.60;;;;;;6250701;28;20249;-76
2023/07/24 13:04:44;;;;;;;4.80;4.60;;;23.90;60.30;;;;;;6236238;28;20230;-77
2023/07/24 13:07:47;;;;;;;4.93;4.47;;;23.80;60.80;;;;;;6238726;28;20771;-78
2023/07/24 13:10:50;;;;;;;4.60;4.33;;;23.70;60.70;;;;;;6242912;28;20250;-76
2023/07/24 13:13:55;;;;;;;4.73;4.43;;;23.60;61.70;;;;;;6245534;28;20756;-79
2023/07/24 13:16:58;;;;;;;4.50;4.30;;;23.40;62.20;;;;;;6252063;28;20241;-77
2023/07/24 13:20:01;;;;;;;4.13;3.80;;;23.30;62.50;;;;;;6240876;28;20258;-76
2023/07/24 13:23:04;;;;;;;3.97;3.70;;;23.30;62.50;;;;;;6251103;28;20273;-77
2023/07/24 13:26:10;;;;;;;4.93;4.50;;;23.40;62.80;;;;;;6240561;28;20312;-76
2023/07/24 13:29:14;;;;;;;4.77;4.50;;;23.70;62.80;;;;;;6233001;28;20722;-75
2023/07/24 13:32:18;;;;;;;4.57;4.37;;;24.00;61.80;;;;;;6241309;28;20258;-76
2023/07/24 13:35:21;;;;;;;4.70;4.40;;;24.40;60.80;;;;;;6246748;28;20332;-78
2023/07/24 13:38:24;;;;;;;5.00;4.60;;;24.40;60.30;;;;;;6237302;28;20263;-78
2023/07/24 13:41:27;;;;;;;4.77;4.57;;;24.60;60.60;;;;;;6242703;28;20321;-77
2023/07/24 13:44:32;;;;;;;5.03;4.73;;;24.90;60.00;;;;;;6235437;28;20245;-79
2023/07/24 13:47:35;;;;;;;4.73;4.53;;;25.20;59.30;;;;;;6246128;28;20744;-77
2023/07/24 13:50:38;;;;;;;5.07;4.77;;;25.60;59.30;;;;;;6238219;28;20234;-78
2023/07/24 13:53:41;;;;;;;4.57;4.30;;;25.90;58.70;;;;;;6237677;28;20309;-77
2023/07/24 13:56:45;;;;;;;5.30;4.90;;;26.10;58.00;;;;;;6244619;28;20242;-78
2023/07/24 13:59:49;;;;;;;5.00;4.63;;;26.30;57.50;;;;;;6236968;28;20239;-77
2023/07/24 14:02:52;;;;;;;4.40;4.20;;;26.40;57.60;;;;;;6253861;28;20245;-79
2023/07/24 14:05:56;;;;;;;6.07;5.57;;;26.50;57.80;;;;;;6235924;28;20738;-79
2023/07/24 14:08:59;;;;;;;5.13;4.73;;;26.40;57.50;;;;;;6247661;28;20253;-80
2023/07/24 14:12:02;;;;;;;5.13;4.73;;;26.20;57.80;;;;;;6236318;28;20247;-78
2023/07/24 14:15:09;;;;;;;5.70;5.10;;;26.00;58.50;;;;;;6242576;28;20345;-78
2023/07/24 14:18:12;;;;;;;5.77;5.27;;;25.80;59.00;;;;;;6239238;28;20239;-78
2023/07/24 14:21:15;;;;;;;5.73;5.23;;;25.60;59.50;;;;;;6240802;28;20242;-79
2023/07/24 14:24:18;;;;;;;4.30;4.10;;;25.60;59.70;;;;;;6247383;28;20246;-78
2023/07/24 14:27:22;;;;;;;7.23;5.80;;;25.70;60.00;;;;;;6222546;28;20239;-80
2023/07/24 14:30:26;;;;;;;8.37;5.43;;;25.80;59.90;;;;;;6244038;28;20303;-78
2023/07/24 14:33:29;;;;;;;9.93;5.90;;;25.80;59.80;;;;;;6232678;28;20242;-77
2023/07/24 14:36:34;;;;;;;5.43;4.90;;;25.80;60.70;;;;;;6238113;28;20855;-80
2023/07/24 14:39:37;;;;;;;5.73;5.07;;;25.80;60.60;;;;;;6238231;28;20257;-80
2023/07/24 14:42:41;;;;;;;5.37;4.90;;;25.70;60.70;;;;;;6228975;28;20234;-81
2023/07/24 14:45:45;;;;;;;6.83;4.80;;;25.60;60.20;;;;;;6229750;28;20787;-77
2023/07/24 14:48:49;;;;;;;5.17;4.70;;;25.50;60.20;;;;;;6241185;28;20893;-78
2023/07/24 14:51:52;;;;;;;5.20;4.90;;;25.50;60.50;;;;;;6227673;28;20292;-79
2023/07/24 14:54:55;;;;;;;5.00;4.60;;;25.40;60.50;;;;;;6239711;28;20230;-77
2023/07/24 14:57:58;;;;;;;4.93;4.60;;;25.20;60.60;;;;;;6248091;28;20325;-77
2023/07/24 15:01:02;;;;;;;4.83;4.53;;;25.00;58.90;;;;;;6250287;28;20238;-77
2023/07/24 15:04:05;;;;;;;6.23;4.73;;;24.70;57.90;;;;;;6238728;28;20718;-76
2023/07/24 15:07:08;;;;;;;4.80;4.60;;;24.50;58.40;;;;;;6238530;28;20243;-78
2023/07/24 15:10:12;;;;;;;4.90;4.60;;;24.50;58.00;;;;;;6240515;28;20276;-76
2023/07/24 15:13:15;;;;;;;4.07;3.90;;;24.40;58.50;;;;;;6239979;28;20257;-78
2023/07/24 15:16:19;;;;;;;4.80;4.40;;;24.50;58.70;;;;;;6243758;28;20368;-77
2023/07/24 15:19:22;;;;;;;5.00;4.70;;;24.50;58.30;;;;;;6234054;28;20229;-79
2023/07/24 15:22:25;;;;;;;7.67;4.73;;;24.60;58.30;;;;;;6211680;28;20243;-78
2023/07/24 15:25:29;;;;;;;4.83;4.63;;;24.80;58.00;;;;;;6236620;28;20272;-80
2023/07/24 15:28:32;;;;;;;5.23;4.93;;;25.00;56.50;;;;;;6231614;28;20302;-79
2023/07/24 15:31:36;;;;;;;5.03;4.83;;;25.00;56.50;;;;;;6239240;28;20273;-78
2023/07/24 15:34:40;;;;;;;7.37;5.27;;;25.30;56.00;;;;;;6225984;28;20278;-77
2023/07/24 15:37:43;;;;;;;4.90;4.60;;;25.40;56.30;;;;;;6237887;28;20321;-79
2023/07/24 15:40:46;;;;;;;5.13;4.77;;;25.60;56.20;;;;;;6228509;28;20353;-79
2023/07/24 15:43:50;;;;;;;4.73;4.43;;;25.80;54.80;;;;;;6229077;28;20728;-78
2023/07/24 15:46:54;;;;;;;4.90;4.70;;;25.80;55.10;;;;;;6223030;28;20281;-78
2023/07/24 15:49:57;;;;;;;4.80;4.50;;;26.00;54.30;;;;;;6234094;28;20242;-78
2023/07/24 15:53:01;;;;;;;9.07;5.27;;;26.00;54.80;;;;;;6236649;28;20754;-79
2023/07/24 15:56:05;;;;;;;4.50;4.33;;;26.40;53.70;;;;;;6242522;28;20226;-78
2023/07/24 15:59:10;;;;;;;4.73;4.43;;;26.40;53.10;;;;;;6246188;28;20226;-78